sensor_id;sensor_type;location;lat;lon;timestamp;pressure;altitude;pressure_sealevel;temperature;humidity
41515;BME280;27247;48.020;16.720;2023-04-15T00:03:27;98533.75;;;3.95;100.00
41515;BME280;27247;48.020;16.720;2023-04-15T00:07:38;98528.81;;;3.92;100.00
41515;BME280;27247;48.020;16.720;2023-04-15T00:11:49;98533.91;;;3.94;100.00
41515;BME280;27247;48.020;16.720;2023-04-15T00:16:00;98545.66;;;3.99;100.00
41515;BME280;27247;48.020;16.720;2023-04-15T00:20:10;98543.66;;;4.01;100.00
41515;BME280;27247;48.020;16.720;2023-04-15T00:24:21;98542.34;;;4.13;100.00
41515;BME280;27247;48.020;16.720;2023-04-15T00:28:32;98546.13;;;4.11;100.00
41515;BME280;27247;48.020;16.720;2023-04-15T00:32:42;98550.63;;;4.19;100.00
41515;BME280;27247;48.020;16.720;2023-04-15T00:36:53;98551.44;;;4.35;100.00
41515;BME280;27247;48.020;16.720;2023-04-15T00:41:04;98561.19;;;4.35;100.00
41515;BME280;27247;48.020;16.720;2023-04-15T00:45:14;98559.69;;;4.24;100.00
41515;BME280;27247;48.020;16.720;2023-04-15T00:49:25;98552.41;;;4.34;100.00
41515;BME280;27247;48.020;16.720;2023-04-15T00:53:36;98563.84;;;4.27;100.00
41515;BME280;27247;48.020;16.720;2023-04-15T00:57:47;98560.34;;;4.26;100.00
41515;BME280;27247;48.020;16.720;2023-04-15T01:01:57;98569.13;;;4.19;100.00
41515;BME280;27247;48.020;16.720;2023-04-15T01:06:08;98561.19;;;4.19;100.00
41515;BME280;27247;48.020;16.720;2023-04-15T01:10:18;98577.34;;;4.07;100.00
41515;BME280;27247;48.020;16.720;2023-04-15T01:14:29;98573.06;;;4.06;100.00
41515;BME280;27247;48.020;16.720;2023-04-15T01:18:40;98579.53;;;4.20;100.00
41515;BME280;27247;48.020;16.720;2023-04-15T01:22:50;98583.63;;;4.14;100.00
41515;BME280;27247;48.020;16.720;2023-04-15T01:27:02;98573.09;;;4.23;100.00
41515;BME280;27247;48.020;16.720;2023-04-15T01:31:14;98587.97;;;4.24;100.00
41515;BME280;27247;48.020;16.720;2023-04-15T01:35:24;98588.63;;;4.18;100.00
41515;BME280;27247;48.020;16.720;2023-04-15T01:39:36;98588.63;;;4.18;100.00
41515;BME280;27247;48.020;16.720;2023-04-15T01:43:46;98593.75;;;4.19;100.00
41515;BME280;27247;48.020;16.720;2023-04-15T01:47:56;98590.75;;;4.14;100.00
41515;BME280;27247;48.020;16.720;2023-04-15T01:52:07;98595.88;;;4.15;100.00
41515;BME280;27247;48.020;16.720;2023-04-15T01:56:18;98595.41;;;4.28;100.00
41515;BME280;27247;48.020;16.720;2023-04-15T02:00:28;98598.38;;;4.25;100.00
41515;BME280;27247;48.020;16.720;2023-04-15T02:04:39;98596.72;;;4.32;100.00
41515;BME280;27247;48.020;16.720;2023-04-15T02:08:50;98593.72;;;4.35;100.00
41515;BME280;27247;48.020;16.720;2023-04-15T02:13:00;98601.81;;;4.42;100.00
41515;BME280;27247;48.020;16.720;2023-04-15T02:17:10;98590.75;;;4.46;100.00
41515;BME280;27247;48.020;16.720;2023-04-15T02:21:21;98595.53;;;4.59;100.00
41515;BME280;27247;48.020;16.720;2023-04-15T02:25:31;98590.88;;;4.61;100.00
41515;BME280;27247;48.020;16.720;2023-04-15T02:29:43;98595.00;;;4.64;100.00
41515;BME280;27247;48.020;16.720;2023-04-15T02:33:53;98594.03;;;4.65;100.00
41515;BME280;27247;48.020;16.720;2023-04-15T02:38:03;98591.53;;;4.63;100.00
41515;BME280;27247;48.020;16.720;2023-04-15T02:42:14;98591.53;;;4.63;100.00
41515;BME280;27247;48.020;16.720;2023-04-15T02:46:24;98598.50;;;4.64;100.00
41515;BME280;27247;48.020;16.720;2023-04-15T02:50:34;98596.81;;;4.71;100.00
41515;BME280;27247;48.020;16.720;2023-04-15T02:54:46;98604.91;;;4.78;100.00
41515;BME280;27247;48.020;16.720;2023-04-15T02:58:57;98601.44;;;4.77;100.00
41515;BME280;27247;48.020;16.720;2023-04-15T03:03:07;98607.88;;;4.83;100.00
41515;BME280;27247;48.020;16.720;2023-04-15T03:07:18;98611.16;;;4.85;100.00
41515;BME280;27247;48.020;16.720;2023-04-15T03:11:28;98612.69;;;4.79;100.00
41515;BME280;27247;48.020;16.720;2023-04-15T03:15:39;98613.84;;;4.77;100.00
41515;BME280;27247;48.020;16.720;2023-04-15T03:19:49;98609.72;;;4.74;100.00
41515;BME280;27247;48.020;16.720;2023-04-15T03:23:59;98604.91;;;4.78;100.00
41515;BME280;27247;48.020;16.720;2023-04-15T03:28:10;98610.38;;;4.76;100.00
41515;BME280;27247;48.020;16.720;2023-04-15T03:32:20;98612.69;;;4.71;100.00
41515;BME280;27247;48.020;16.720;2023-04-15T03:36:30;98607.88;;;4.75;100.00
41515;BME280;27247;48.020;16.720;2023-04-15T03:40:42;98612.53;;;4.73;100.00
41515;BME280;27247;48.020;16.720;2023-04-15T03:44:52;98605.59;;;4.72;100.00
41515;BME280;27247;48.020;16.720;2023-04-15T03:49:05;98609.06;;;4.72;100.00
41515;BME280;27247;48.020;16.720;2023-04-15T03:53:16;98615.50;;;4.78;100.00
41515;BME280;27247;48.020;16.720;2023-04-15T03:57:26;98613.34;;;4.81;100.00
41515;BME280;27247;48.020;16.720;2023-04-15T04:01:36;98615.44;;;4.94;100.00
41515;BME280;27247;48.020;16.720;2023-04-15T04:05:47;98622.53;;;5.02;100.00
41515;BME280;27247;48.020;16.720;2023-04-15T04:09:57;98622.72;;;5.00;100.00
41515;BME280;27247;48.020;16.720;2023-04-15T04:14:07;98623.88;;;4.98;100.00
41515;BME280;27247;48.020;16.720;2023-04-15T04:18:18;98618.75;;;4.96;100.00
41515;BME280;27247;48.020;16.720;2023-04-15T04:22:28;98631.47;;;5.01;100.00
41515;BME280;27247;48.020;16.720;2023-04-15T04:26:39;98635.94;;;5.00;100.00
41515;BME280;27247;48.020;16.720;2023-04-15T04:30:49;98634.47;;;4.90;100.00
41515;BME280;27247;48.020;16.720;2023-04-15T04:35:00;98642.56;;;4.96;100.00
41515;BME280;27247;48.020;16.720;2023-04-15T04:39:10;98648.34;;;5.00;100.00
41515;BME280;27247;48.020;16.720;2023-04-15T04:43:20;98656.81;;;4.95;100.00
41515;BME280;27247;48.020;16.720;2023-04-15T04:47:31;98659.63;;;4.94;100.00
41515;BME280;27247;48.020;16.720;2023-04-15T04:51:41;98660.59;;;5.01;100.00
41515;BME280;27247;48.020;16.720;2023-04-15T04:55:52;98661.75;;;4.98;100.00
41515;BME280;27247;48.020;16.720;2023-04-15T05:00:02;98676.47;;;5.09;100.00
41515;BME280;27247;48.020;16.720;2023-04-15T05:04:14;98662.72;;;5.05;100.00
41515;BME280;27247;48.020;16.720;2023-04-15T05:08:24;98661.72;;;5.14;100.00
41515;BME280;27247;48.020;16.720;2023-04-15T05:12:35;98666.50;;;5.19;100.00
41515;BME280;27247;48.020;16.720;2023-04-15T05:16:46;98671.81;;;5.19;100.00
41515;BME280;27247;48.020;16.720;2023-04-15T05:20:57;98668.34;;;5.27;100.00
41515;BME280;27247;48.020;16.720;2023-04-15T05:25:08;98671.09;;;5.41;100.00
41515;BME280;27247;48.020;16.720;2023-04-15T05:29:19;98669.56;;;5.47;100.00
41515;BME280;27247;48.020;16.720;2023-04-15T05:33:29;98682.69;;;5.40;100.00
41515;BME280;27247;48.020;16.720;2023-04-15T05:37:39;98682.69;;;5.40;100.00
41515;BME280;27247;48.020;16.720;2023-04-15T05:41:50;98683.47;;;5.49;100.00
41515;BME280;27247;48.020;16.720;2023-04-15T05:46:00;98679.69;;;5.43;100.00
41515;BME280;27247;48.020;16.720;2023-04-15T05:50:10;98683.78;;;5.54;100.00
41515;BME280;27247;48.020;16.720;2023-04-15T05:54:21;98685.06;;;5.66;100.00
41515;BME280;27247;48.020;16.720;2023-04-15T05:58:32;98691.97;;;5.75;100.00
41515;BME280;27247;48.020;16.720;2023-04-15T06:02:42;98698.31;;;5.66;100.00
41515;BME280;27247;48.020;16.720;2023-04-15T06:06:53;98700.41;;;5.79;100.00
41515;BME280;27247;48.020;16.720;2023-04-15T06:11:03;98706.50;;;5.88;100.00
41515;BME280;27247;48.020;16.720;2023-04-15T06:15:13;98706.66;;;5.94;100.00
41515;BME280;27247;48.020;16.720;2023-04-15T06:19:24;98710.13;;;5.95;100.00
41515;BME280;27247;48.020;16.720;2023-04-15T06:23:35;98719.78;;;5.80;100.00
41515;BME280;27247;48.020;16.720;2023-04-15T06:27:46;98720.88;;;6.01;100.00
41515;BME280;27247;48.020;16.720;2023-04-15T06:31:57;98724.03;;;5.97;100.00
41515;BME280;27247;48.020;16.720;2023-04-15T06:36:07;98719.88;;;6.02;100.00
41515;BME280;27247;48.020;16.720;2023-04-15T06:40:18;98725.94;;;6.11;100.00
41515;BME280;27247;48.020;16.720;2023-04-15T06:44:28;98727.66;;;6.04;100.00
41515;BME280;27247;48.020;16.720;2023-04-15T06:48:38;98726.13;;;6.09;100.00
41515;BME280;27247;48.020;16.720;2023-04-15T06:52:49;98731.34;;;5.95;100.00
41515;BME280;27247;48.020;16.720;2023-04-15T06:56:59;98729.78;;;6.08;100.00
41515;BME280;27247;48.020;16.720;2023-04-15T07:01:10;98741.44;;;6.30;100.00
41515;BME280;27247;48.020;16.720;2023-04-15T07:05:21;98736.38;;;6.44;100.00
41515;BME280;27247;48.020;16.720;2023-04-15T07:09:31;98747.47;;;6.70;100.00
41515;BME280;27247;48.020;16.720;2023-04-15T07:13:43;98745.56;;;7.01;100.00
41515;BME280;27247;48.020;16.720;2023-04-15T07:17:53;98748.69;;;7.20;100.00
41515;BME280;27247;48.020;16.720;2023-04-15T07:22:04;98754.81;;;7.43;100.00
41515;BME280;27247;48.020;16.720;2023-04-15T07:26:14;98757.69;;;7.19;100.00
41515;BME280;27247;48.020;16.720;2023-04-15T07:30:24;98758.16;;;7.22;100.00
41515;BME280;27247;48.020;16.720;2023-04-15T07:34:35;98758.13;;;7.08;100.00
41515;BME280;27247;48.020;16.720;2023-04-15T07:38:45;98765.78;;;7.02;100.00
41515;BME280;27247;48.020;16.720;2023-04-15T07:42:56;98765.25;;;7.07;100.00
41515;BME280;27247;48.020;16.720;2023-04-15T07:47:07;98766.41;;;7.27;100.00
41515;BME280;27247;48.020;16.720;2023-04-15T07:51:20;98767.19;;;7.13;100.00
41515;BME280;27247;48.020;16.720;2023-04-15T07:55:31;98768.75;;;7.45;100.00
41515;BME280;27247;48.020;16.720;2023-04-15T07:59:41;98776.44;;;7.55;100.00
41515;BME280;27247;48.020;16.720;2023-04-15T08:03:52;98790.84;;;7.60;100.00
41515;BME280;27247;48.020;16.720;2023-04-15T08:08:02;98785.97;;;7.49;100.00
41515;BME280;27247;48.020;16.720;2023-04-15T08:12:12;98786.63;;;7.51;100.00
41515;BME280;27247;48.020;16.720;2023-04-15T08:16:25;98799.38;;;7.71;100.00
41515;BME280;27247;48.020;16.720;2023-04-15T08:20:36;98796.06;;;7.68;100.00
41515;BME280;27247;48.020;16.720;2023-04-15T08:24:47;98798.53;;;7.55;100.00
41515;BME280;27247;48.020;16.720;2023-04-15T08:28:58;98805.41;;;7.50;100.00
41515;BME280;27247;48.020;16.720;2023-04-15T08:33:08;98800.19;;;7.42;100.00
41515;BME280;27247;48.020;16.720;2023-04-15T08:37:18;98808.34;;;7.55;100.00
41515;BME280;27247;48.020;16.720;2023-04-15T08:41:33;98808.97;;;7.42;100.00
41515;BME280;27247;48.020;16.720;2023-04-15T08:45:49;98811.81;;;7.41;100.00
41515;BME280;27247;48.020;16.720;2023-04-15T08:50:02;98818.06;;;7.25;100.00
41515;BME280;27247;48.020;16.720;2023-04-15T08:54:13;98814.56;;;7.47;100.00
41515;BME280;27247;48.020;16.720;2023-04-15T08:58:24;98816.69;;;7.52;100.00
41515;BME280;27247;48.020;16.720;2023-04-15T09:02:35;98822.19;;;7.50;100.00
41515;BME280;27247;48.020;16.720;2023-04-15T09:06:46;98821.75;;;7.61;100.00
41515;BME280;27247;48.020;16.720;2023-04-15T09:10:57;98827.44;;;7.73;100.00
41515;BME280;27247;48.020;16.720;2023-04-15T09:15:10;98831.09;;;7.87;99.96
41515;BME280;27247;48.020;16.720;2023-04-15T09:19:23;98827.44;;;8.17;99.48
41515;BME280;27247;48.020;16.720;2023-04-15T09:23:34;98833.88;;;8.38;96.50
41515;BME280;27247;48.020;16.720;2023-04-15T09:27:52;98837.63;;;8.58;93.60
41515;BME280;27247;48.020;16.720;2023-04-15T09:32:15;98830.53;;;8.65;93.83
41515;BME280;27247;48.020;16.720;2023-04-15T09:36:25;98842.94;;;8.58;89.80
41515;BME280;27247;48.020;16.720;2023-04-15T09:40:40;98840.66;;;8.55;90.11
41515;BME280;27247;48.020;16.720;2023-04-15T09:44:51;98835.53;;;8.75;87.32
41515;BME280;27247;48.020;16.720;2023-04-15T09:49:09;98836.31;;;8.90;86.85
41515;BME280;27247;48.020;16.720;2023-04-15T09:53:21;98835.31;;;8.91;86.08
41515;BME280;27247;48.020;16.720;2023-04-15T09:57:35;98836.38;;;9.18;87.78
41515;BME280;27247;48.020;16.720;2023-04-15T10:01:46;98837.78;;;9.14;87.99
41515;BME280;27247;48.020;16.720;2023-04-15T10:05:58;98839.31;;;9.44;90.22
41515;BME280;27247;48.020;16.720;2023-04-15T10:10:10;98836.59;;;9.38;87.52
41515;BME280;27247;48.020;16.720;2023-04-15T10:14:20;98859.16;;;9.20;87.81
41515;BME280;27247;48.020;16.720;2023-04-15T10:18:34;98856.88;;;9.17;97.19
41515;BME280;27247;48.020;16.720;2023-04-15T10:22:45;98861.94;;;8.91;98.13
41515;BME280;27247;48.020;16.720;2023-04-15T10:26:56;98880.34;;;8.86;98.79
41515;BME280;27247;48.020;16.720;2023-04-15T10:31:08;98877.03;;;8.84;99.90
41515;BME280;27247;48.020;16.720;2023-04-15T10:35:21;98875.91;;;8.93;100.00
41515;BME280;27247;48.020;16.720;2023-04-15T10:43:50;98883.59;;;9.03;95.67
41515;BME280;27247;48.020;16.720;2023-04-15T10:48:03;98883.28;;;9.12;95.14
41515;BME280;27247;48.020;16.720;2023-04-15T10:52:17;98876.69;;;9.29;96.66
41515;BME280;27247;48.020;16.720;2023-04-15T10:56:31;98877.41;;;9.38;94.89
41515;BME280;27247;48.020;16.720;2023-04-15T11:00:49;98881.63;;;9.54;91.84
41515;BME280;27247;48.020;16.720;2023-04-15T11:05:01;98884.41;;;9.67;91.87
41515;BME280;27247;48.020;16.720;2023-04-15T11:09:30;98878.31;;;9.73;94.49
41515;BME280;27247;48.020;16.720;2023-04-15T11:13:51;98892.19;;;9.90;92.54
41515;BME280;27247;48.020;16.720;2023-04-15T11:22:24;98891.00;;;9.99;90.24
41515;BME280;27247;48.020;16.720;2023-04-15T11:26:34;98892.47;;;10.02;91.33
41515;BME280;27247;48.020;16.720;2023-04-15T11:30:44;98897.13;;;9.93;86.97
41515;BME280;27247;48.020;16.720;2023-04-15T11:34:55;98894.03;;;9.40;85.53
41515;BME280;27247;48.020;16.720;2023-04-15T11:39:06;98890.31;;;9.63;86.96
41515;BME280;27247;48.020;16.720;2023-04-15T11:43:18;98899.22;;;9.48;86.65
41515;BME280;27247;48.020;16.720;2023-04-15T11:47:30;98907.34;;;9.62;86.51
41515;BME280;27247;48.020;16.720;2023-04-15T11:51:40;98908.63;;;9.44;87.48
41515;BME280;27247;48.020;16.720;2023-04-15T11:55:52;98919.84;;;9.61;87.02
41515;BME280;27247;48.020;16.720;2023-04-15T12:00:03;98922.53;;;9.40;87.29
41515;BME280;27247;48.020;16.720;2023-04-15T12:04:15;98912.88;;;9.39;89.35
41515;BME280;27247;48.020;16.720;2023-04-15T12:13:15;98911.53;;;9.28;87.02
41515;BME280;27247;48.020;16.720;2023-04-15T12:17:26;98904.78;;;9.11;87.17
41515;BME280;27247;48.020;16.720;2023-04-15T12:21:39;98912.97;;;9.09;85.72
41515;BME280;27247;48.020;16.720;2023-04-15T12:25:50;98923.47;;;8.96;89.49
41515;BME280;27247;48.020;16.720;2023-04-15T12:30:05;98921.38;;;8.91;93.91
41515;BME280;27247;48.020;16.720;2023-04-15T12:34:18;98929.63;;;8.96;93.35
41515;BME280;27247;48.020;16.720;2023-04-15T12:38:34;98931.63;;;9.09;93.76
41515;BME280;27247;48.020;16.720;2023-04-15T12:42:45;98932.16;;;9.19;96.83
41515;BME280;27247;48.020;16.720;2023-04-15T12:46:55;98930.78;;;9.66;100.00
41515;BME280;27247;48.020;16.720;2023-04-15T12:51:06;98929.81;;;9.74;99.31
41515;BME280;27247;48.020;16.720;2023-04-15T12:55:16;98934.91;;;9.69;94.80
41515;BME280;27247;48.020;16.720;2023-04-15T12:59:27;98938.44;;;9.76;91.75
41515;BME280;27247;48.020;16.720;2023-04-15T13:03:38;98944.00;;;9.53;90.01
41515;BME280;27247;48.020;16.720;2023-04-15T13:07:48;98947.91;;;9.36;90.37
41515;BME280;27247;48.020;16.720;2023-04-15T13:11:59;98955.09;;;9.56;88.10
41515;BME280;27247;48.020;16.720;2023-04-15T13:16:09;98949.47;;;9.45;90.77
41515;BME280;27247;48.020;16.720;2023-04-15T13:20:19;98958.91;;;9.69;94.61
41515;BME280;27247;48.020;16.720;2023-04-15T13:24:30;98960.94;;;10.16;94.39
41515;BME280;27247;48.020;16.720;2023-04-15T13:28:41;98965.56;;;10.57;87.17
41515;BME280;27247;48.020;16.720;2023-04-15T13:32:51;98965.97;;;10.95;85.39
41515;BME280;27247;48.020;16.720;2023-04-15T13:37:08;98958.28;;;11.33;85.20
41515;BME280;27247;48.020;16.720;2023-04-15T13:41:19;98972.97;;;11.57;80.08
41515;BME280;27247;48.020;16.720;2023-04-15T13:45:30;98969.53;;;12.02;77.50
41515;BME280;27247;48.020;16.720;2023-04-15T13:49:40;98979.19;;;12.36;77.83
41515;BME280;27247;48.020;16.720;2023-04-15T13:53:52;98980.63;;;12.39;75.24
41515;BME280;27247;48.020;16.720;2023-04-15T13:58:02;98989.94;;;12.17;77.40
41515;BME280;27247;48.020;16.720;2023-04-15T14:02:12;98986.22;;;12.31;73.92
41515;BME280;27247;48.020;16.720;2023-04-15T14:06:23;98990.28;;;11.67;76.15
41515;BME280;27247;48.020;16.720;2023-04-15T14:10:34;98992.41;;;11.31;76.56
41515;BME280;27247;48.020;16.720;2023-04-15T14:14:44;98999.94;;;11.07;78.75
41515;BME280;27247;48.020;16.720;2023-04-15T14:18:55;99000.78;;;11.08;78.31
41515;BME280;27247;48.020;16.720;2023-04-15T14:23:05;99004.38;;;11.35;80.32
41515;BME280;27247;48.020;16.720;2023-04-15T14:27:16;99007.16;;;11.61;78.06
41515;BME280;27247;48.020;16.720;2023-04-15T14:31:26;99014.16;;;11.75;75.93
41515;BME280;27247;48.020;16.720;2023-04-15T14:35:37;99027.75;;;11.74;77.08
41515;BME280;27247;48.020;16.720;2023-04-15T14:39:48;99028.75;;;11.60;76.32
41515;BME280;27247;48.020;16.720;2023-04-15T14:43:58;99035.91;;;11.46;76.57
41515;BME280;27247;48.020;16.720;2023-04-15T14:48:09;99039.94;;;11.29;76.89
41515;BME280;27247;48.020;16.720;2023-04-15T14:52:21;99042.31;;;11.04;77.79
41515;BME280;27247;48.020;16.720;2023-04-15T14:56:31;99050.44;;;10.89;78.55
41515;BME280;27247;48.020;16.720;2023-04-15T15:00:42;99048.41;;;10.91;79.66
41515;BME280;27247;48.020;16.720;2023-04-15T15:04:53;99058.22;;;10.84;78.62
41515;BME280;27247;48.020;16.720;2023-04-15T15:09:04;99059.66;;;10.52;78.49
41515;BME280;27247;48.020;16.720;2023-04-15T15:13:14;99065.41;;;10.28;80.64
41515;BME280;27247;48.020;16.720;2023-04-15T15:17:25;99069.66;;;10.43;nan
41515;BME280;27247;48.020;16.720;2023-04-15T15:21:35;99072.34;;;10.43;80.82
41515;BME280;27247;48.020;16.720;2023-04-15T15:25:46;99078.59;;;10.36;80.97
41515;BME280;27247;48.020;16.720;2023-04-15T15:29:57;99080.72;;;10.40;80.97
41515;BME280;27247;48.020;16.720;2023-04-15T15:34:08;99076.56;;;10.38;80.63
41515;BME280;27247;48.020;16.720;2023-04-15T15:38:18;99083.56;;;10.39;81.49
41515;BME280;27247;48.020;16.720;2023-04-15T15:42:30;99088.28;;;10.37;81.36
41515;BME280;27247;48.020;16.720;2023-04-15T15:46:41;99099.47;;;10.26;81.22
41515;BME280;27247;48.020;16.720;2023-04-15T15:50:51;99099.38;;;10.19;82.50
41515;BME280;27247;48.020;16.720;2023-04-15T15:55:02;99116.22;;;9.98;81.08
41515;BME280;27247;48.020;16.720;2023-04-15T15:59:14;99116.03;;;10.00;82.00
41515;BME280;27247;48.020;16.720;2023-04-15T16:03:24;99118.63;;;9.93;81.32
41515;BME280;27247;48.020;16.720;2023-04-15T16:07:35;99118.09;;;9.83;81.47
41515;BME280;27247;48.020;16.720;2023-04-15T16:11:45;99130.00;;;9.80;82.80
41515;BME280;27247;48.020;16.720;2023-04-15T16:15:55;99132.13;;;9.70;83.14
41515;BME280;27247;48.020;16.720;2023-04-15T16:20:06;99133.50;;;9.66;83.01
41515;BME280;27247;48.020;16.720;2023-04-15T16:24:17;99141.06;;;9.63;83.43
41515;BME280;27247;48.020;16.720;2023-04-15T16:28:27;99142.91;;;9.62;82.02
41515;BME280;27247;48.020;16.720;2023-04-15T16:32:38;99147.03;;;9.65;82.25
41515;BME280;27247;48.020;16.720;2023-04-15T16:36:48;99153.41;;;9.49;81.06
41515;BME280;27247;48.020;16.720;2023-04-15T16:40:59;99159.03;;;9.39;81.16
41515;BME280;27247;48.020;16.720;2023-04-15T16:45:10;99165.81;;;9.27;81.25
41515;BME280;27247;48.020;16.720;2023-04-15T16:49:20;99168.94;;;9.31;82.25
41515;BME280;27247;48.020;16.720;2023-04-15T16:53:31;99177.94;;;9.15;83.03
41515;BME280;27247;48.020;16.720;2023-04-15T16:57:41;99181.59;;;9.14;84.05
41515;BME280;27247;48.020;16.720;2023-04-15T17:01:52;99189.75;;;8.98;84.52
41515;BME280;27247;48.020;16.720;2023-04-15T17:06:03;99187.13;;;8.75;85.23
41515;BME280;27247;48.020;16.720;2023-04-15T17:10:13;99203.31;;;8.73;86.06
41515;BME280;27247;48.020;16.720;2023-04-15T17:14:24;99194.25;;;8.59;86.20
41515;BME280;27247;48.020;16.720;2023-04-15T17:18:34;99209.78;;;8.56;86.63
41515;BME280;27247;48.020;16.720;2023-04-15T17:22:45;99213.78;;;8.52;87.38
41515;BME280;27247;48.020;16.720;2023-04-15T17:26:55;99226.16;;;8.45;87.23
41515;BME280;27247;48.020;16.720;2023-04-15T17:31:06;99222.34;;;8.31;87.40
41515;BME280;27247;48.020;16.720;2023-04-15T17:35:17;99236.19;;;8.26;88.00
41515;BME280;27247;48.020;16.720;2023-04-15T17:39:27;99243.91;;;8.13;88.24
41515;BME280;27247;48.020;16.720;2023-04-15T17:43:38;99249.31;;;7.97;88.45
41515;BME280;27247;48.020;16.720;2023-04-15T17:47:48;99259.19;;;7.88;89.32
41515;BME280;27247;48.020;16.720;2023-04-15T17:51:59;99255.06;;;7.78;89.73
41515;BME280;27247;48.020;16.720;2023-04-15T17:56:10;99254.91;;;7.71;90.18
41515;BME280;27247;48.020;16.720;2023-04-15T18:00:22;99276.88;;;7.65;90.99
41515;BME280;27247;48.020;16.720;2023-04-15T18:04:32;99275.56;;;7.61;91.18
41515;BME280;27247;48.020;16.720;2023-04-15T18:08:43;99282.06;;;7.50;91.01
41515;BME280;27247;48.020;16.720;2023-04-15T18:12:53;99297.22;;;7.33;91.06
41515;BME280;27247;48.020;16.720;2023-04-15T18:17:04;99297.88;;;7.35;91.90
41515;BME280;27247;48.020;16.720;2023-04-15T18:21:14;99303.50;;;7.24;91.91
41515;BME280;27247;48.020;16.720;2023-04-15T18:25:25;99300.84;;;7.16;92.45
41515;BME280;27247;48.020;16.720;2023-04-15T18:29:36;99318.28;;;7.11;93.35
41515;BME280;27247;48.020;16.720;2023-04-15T18:33:47;99317.63;;;7.09;93.56
41515;BME280;27247;48.020;16.720;2023-04-15T18:37:57;99324.75;;;7.00;93.05
41515;BME280;27247;48.020;16.720;2023-04-15T18:42:08;99326.91;;;6.80;94.21
41515;BME280;27247;48.020;16.720;2023-04-15T18:46:18;99338.53;;;6.79;94.57
41515;BME280;27247;48.020;16.720;2023-04-15T18:50:29;99335.34;;;6.67;95.15
41515;BME280;27247;48.020;16.720;2023-04-15T18:54:40;99353.94;;;6.67;95.65
41515;BME280;27247;48.020;16.720;2023-04-15T18:58:51;99358.06;;;6.62;95.52
41515;BME280;27247;48.020;16.720;2023-04-15T19:03:01;99360.53;;;6.55;95.68
41515;BME280;27247;48.020;16.720;2023-04-15T19:07:12;99362.53;;;6.53;96.02
41515;BME280;27247;48.020;16.720;2023-04-15T19:11:22;99378.25;;;6.47;95.56
41515;BME280;27247;48.020;16.720;2023-04-15T19:15:33;99377.25;;;6.39;95.87
41515;BME280;27247;48.020;16.720;2023-04-15T19:19:44;99392.50;;;6.37;96.56
41515;BME280;27247;48.020;16.720;2023-04-15T19:23:55;99395.97;;;6.38;97.12
41515;BME280;27247;48.020;16.720;2023-04-15T19:28:06;99404.66;;;6.22;97.18
41515;BME280;27247;48.020;16.720;2023-04-15T19:32:16;99407.78;;;6.18;97.53
41515;BME280;27247;48.020;16.720;2023-04-15T19:36:27;99418.38;;;6.09;97.86
41515;BME280;27247;48.020;16.720;2023-04-15T19:40:38;99429.91;;;6.00;98.18
41515;BME280;27247;48.020;16.720;2023-04-15T19:44:48;99426.28;;;6.01;99.72
41515;BME280;27247;48.020;16.720;2023-04-15T19:48:59;99421.84;;;6.10;97.83
41515;BME280;27247;48.020;16.720;2023-04-15T19:53:10;99422.47;;;6.04;97.57
41515;BME280;27247;48.020;16.720;2023-04-15T19:57:20;99427.72;;;5.96;99.32
41515;BME280;27247;48.020;16.720;2023-04-15T20:01:31;99430.44;;;5.86;100.00
41515;BME280;27247;48.020;16.720;2023-04-15T20:05:41;99439.25;;;5.87;100.00
41515;BME280;27247;48.020;16.720;2023-04-15T20:09:52;99445.63;;;5.94;100.00
41515;BME280;27247;48.020;16.720;2023-04-15T20:14:03;99443.69;;;6.04;100.00
41515;BME280;27247;48.020;16.720;2023-04-15T20:18:14;99452.75;;;5.93;100.00
41515;BME280;27247;48.020;16.720;2023-04-15T20:22:25;99445.81;;;6.00;100.00
41515;BME280;27247;48.020;16.720;2023-04-15T20:26:35;99456.31;;;6.10;100.00
41515;BME280;27247;48.020;16.720;2023-04-15T20:30:46;99463.41;;;5.84;100.00
41515;BME280;27247;48.020;16.720;2023-04-15T20:34:56;99463.66;;;5.72;100.00
41515;BME280;27247;48.020;16.720;2023-04-15T20:39:06;99464.28;;;5.66;100.00
41515;BME280;27247;48.020;16.720;2023-04-15T20:43:17;99467.44;;;5.70;100.00
41515;BME280;27247;48.020;16.720;2023-04-15T20:47:28;99458.88;;;5.76;100.00
41515;BME280;27247;48.020;16.720;2023-04-15T20:51:38;99462.72;;;5.82;100.00
41515;BME280;27247;48.020;16.720;2023-04-15T20:55:49;99475.94;;;5.73;100.00
41515;BME280;27247;48.020;16.720;2023-04-15T20:59:59;99472.34;;;5.83;100.00
41515;BME280;27247;48.020;16.720;2023-04-15T21:04:10;99480.47;;;5.81;100.00
41515;BME280;27247;48.020;16.720;2023-04-15T21:08:20;99481.81;;;5.85;100.00
41515;BME280;27247;48.020;16.720;2023-04-15T21:12:38;99486.47;;;5.65;100.00
41515;BME280;27247;48.020;16.720;2023-04-15T21:16:50;99489.63;;;5.69;100.00
41515;BME280;27247;48.020;16.720;2023-04-15T21:21:00;99486.31;;;5.67;100.00
41515;BME280;27247;48.020;16.720;2023-04-15T21:25:11;99493.59;;;5.65;100.00
41515;BME280;27247;48.020;16.720;2023-04-15T21:29:22;99492.13;;;5.70;100.00
41515;BME280;27247;48.020;16.720;2023-04-15T21:33:32;99491.53;;;5.76;100.00
41515;BME280;27247;48.020;16.720;2023-04-15T21:37:42;99482.16;;;5.64;100.00
41515;BME280;27247;48.020;16.720;2023-04-15T21:41:53;99487.38;;;5.56;100.00
41515;BME280;27247;48.020;16.720;2023-04-15T21:46:03;99493.44;;;5.49;100.00
41515;BME280;27247;48.020;16.720;2023-04-15T21:50:14;99502.22;;;5.49;100.00
41515;BME280;27247;48.020;16.720;2023-04-15T21:54:24;99507.59;;;5.39;100.00
41515;BME280;27247;48.020;16.720;2023-04-15T21:58:34;99519.72;;;5.42;100.00
41515;BME280;27247;48.020;16.720;2023-04-15T22:02:45;99520.00;;;5.39;100.00
41515;BME280;27247;48.020;16.720;2023-04-15T22:06:55;99527.50;;;5.43;100.00
41515;BME280;27247;48.020;16.720;2023-04-15T22:11:17;99533.63;;;5.44;100.00